sensor_id;sensor_type;location;lat;lon;timestamp;temperature;humidity
65179;DHT22;51849;47.476;8.084;2022-07-18T00:01:55;18.20;52.10
65179;DHT22;51849;47.476;8.084;2022-07-18T00:04:22;18.30;52.00
65179;DHT22;51849;47.476;8.084;2022-07-18T00:06:48;18.30;52.10
65179;DHT22;51849;47.476;8.084;2022-07-18T00:09:14;18.30;52.40
65179;DHT22;51849;47.476;8.084;2022-07-18T00:11:39;18.30;52.70
65179;DHT22;51849;47.476;8.084;2022-07-18T00:14:05;18.20;52.70
65179;DHT22;51849;47.476;8.084;2022-07-18T00:16:31;18.20;52.70
65179;DHT22;51849;47.476;8.084;2022-07-18T00:18:57;18.20;52.70
65179;DHT22;51849;47.476;8.084;2022-07-18T00:21:24;18.10;53.00
65179;DHT22;51849;47.476;8.084;2022-07-18T00:23:50;18.00;53.30
65179;DHT22;51849;47.476;8.084;2022-07-18T00:26:16;18.00;53.70
65179;DHT22;51849;47.476;8.084;2022-07-18T00:28:42;17.90;54.10
65179;DHT22;51849;47.476;8.084;2022-07-18T00:31:07;17.90;54.30
65179;DHT22;51849;47.476;8.084;2022-07-18T00:33:33;17.80;54.40
65179;DHT22;51849;47.476;8.084;2022-07-18T00:36:01;17.70;54.70
65179;DHT22;51849;47.476;8.084;2022-07-18T00:38:26;17.60;55.30
65179;DHT22;51849;47.476;8.084;2022-07-18T00:40:52;17.60;55.30
65179;DHT22;51849;47.476;8.084;2022-07-18T00:43:18;17.50;55.70
65179;DHT22;51849;47.476;8.084;2022-07-18T00:45:44;17.30;56.00
65179;DHT22;51849;47.476;8.084;2022-07-18T00:48:11;17.20;56.40
65179;DHT22;51849;47.476;8.084;2022-07-18T00:50:37;17.20;56.40
65179;DHT22;51849;47.476;8.084;2022-07-18T00:53:03;17.20;56.20
65179;DHT22;51849;47.476;8.084;2022-07-18T00:55:31;17.10;56.20
65179;DHT22;51849;47.476;8.084;2022-07-18T00:57:57;17.20;56.30
65179;DHT22;51849;47.476;8.084;2022-07-18T01:00:23;17.30;56.10
65179;DHT22;51849;47.476;8.084;2022-07-18T01:03:08;17.20;56.00
65179;DHT22;51849;47.476;8.084;2022-07-18T01:05:36;17.30;55.90
65179;DHT22;51849;47.476;8.084;2022-07-18T01:08:05;17.30;55.40
65179;DHT22;51849;47.476;8.084;2022-07-18T01:10:31;17.20;55.60
65179;DHT22;51849;47.476;8.084;2022-07-18T01:12:56;17.20;55.80
65179;DHT22;51849;47.476;8.084;2022-07-18T01:15:22;17.10;56.00
65179;DHT22;51849;47.476;8.084;2022-07-18T01:17:48;16.90;56.30
65179;DHT22;51849;47.476;8.084;2022-07-18T01:20:14;16.80;56.60
65179;DHT22;51849;47.476;8.084;2022-07-18T01:22:41;16.80;57.00
65179;DHT22;51849;47.476;8.084;2022-07-18T01:25:10;16.80;56.80
65179;DHT22;51849;47.476;8.084;2022-07-18T01:27:36;16.70;56.70
65179;DHT22;51849;47.476;8.084;2022-07-18T01:30:03;16.70;56.80
65179;DHT22;51849;47.476;8.084;2022-07-18T01:32:30;16.80;56.70
65179;DHT22;51849;47.476;8.084;2022-07-18T01:34:56;16.80;56.50
65179;DHT22;51849;47.476;8.084;2022-07-18T01:37:22;16.90;56.20
65179;DHT22;51849;47.476;8.084;2022-07-18T01:39:47;16.90;56.20
65179;DHT22;51849;47.476;8.084;2022-07-18T01:42:13;17.00;56.10
65179;DHT22;51849;47.476;8.084;2022-07-18T01:44:40;16.90;56.30
65179;DHT22;51849;47.476;8.084;2022-07-18T01:47:07;16.90;56.80
65179;DHT22;51849;47.476;8.084;2022-07-18T01:49:35;16.80;57.30
65179;DHT22;51849;47.476;8.084;2022-07-18T01:52:01;16.70;57.20
65179;DHT22;51849;47.476;8.084;2022-07-18T01:54:28;16.50;57.40
65179;DHT22;51849;47.476;8.084;2022-07-18T01:56:58;16.30;57.90
65179;DHT22;51849;47.476;8.084;2022-07-18T01:59:25;16.20;58.00
65179;DHT22;51849;47.476;8.084;2022-07-18T02:01:53;16.30;57.80
65179;DHT22;51849;47.476;8.084;2022-07-18T02:04:19;16.20;57.70
65179;DHT22;51849;47.476;8.084;2022-07-18T02:07:05;16.20;57.80
65179;DHT22;51849;47.476;8.084;2022-07-18T02:09:31;16.20;58.00
65179;DHT22;51849;47.476;8.084;2022-07-18T02:11:56;16.30;58.00
65179;DHT22;51849;47.476;8.084;2022-07-18T02:14:24;16.20;57.90
65179;DHT22;51849;47.476;8.084;2022-07-18T02:16:50;16.30;57.90
65179;DHT22;51849;47.476;8.084;2022-07-18T02:19:16;16.30;57.80
65179;DHT22;51849;47.476;8.084;2022-07-18T02:21:43;16.40;57.50
65179;DHT22;51849;47.476;8.084;2022-07-18T02:24:09;16.40;57.20
65179;DHT22;51849;47.476;8.084;2022-07-18T02:26:35;16.40;57.10
65179;DHT22;51849;47.476;8.084;2022-07-18T02:29:00;16.30;57.00
65179;DHT22;51849;47.476;8.084;2022-07-18T02:31:26;16.40;57.10
65179;DHT22;51849;47.476;8.084;2022-07-18T02:33:52;16.30;57.10
65179;DHT22;51849;47.476;8.084;2022-07-18T02:36:17;16.30;56.90
65179;DHT22;51849;47.476;8.084;2022-07-18T02:38:43;16.30;57.00
65179;DHT22;51849;47.476;8.084;2022-07-18T02:41:09;16.30;57.30
65179;DHT22;51849;47.476;8.084;2022-07-18T02:43:35;16.20;57.70
65179;DHT22;51849;47.476;8.084;2022-07-18T02:46:00;16.00;58.00
65179;DHT22;51849;47.476;8.084;2022-07-18T02:48:27;16.00;57.80
65179;DHT22;51849;47.476;8.084;2022-07-18T02:50:53;16.00;57.90
65179;DHT22;51849;47.476;8.084;2022-07-18T02:53:19;15.90;57.80
65179;DHT22;51849;47.476;8.084;2022-07-18T02:55:47;15.90;57.70
65179;DHT22;51849;47.476;8.084;2022-07-18T02:58:13;16.00;57.80
65179;DHT22;51849;47.476;8.084;2022-07-18T03:00:38;16.00;57.70
65179;DHT22;51849;47.476;8.084;2022-07-18T03:03:04;16.00;57.40
65179;DHT22;51849;47.476;8.084;2022-07-18T03:05:30;16.00;57.40
65179;DHT22;51849;47.476;8.084;2022-07-18T03:07:56;16.00;57.40
65179;DHT22;51849;47.476;8.084;2022-07-18T03:10:21;16.00;57.40
65179;DHT22;51849;47.476;8.084;2022-07-18T03:12:47;16.00;57.30
65179;DHT22;51849;47.476;8.084;2022-07-18T03:15:13;16.00;57.50
65179;DHT22;51849;47.476;8.084;2022-07-18T03:17:38;16.00;57.70
65179;DHT22;51849;47.476;8.084;2022-07-18T03:20:04;16.00;57.50
65179;DHT22;51849;47.476;8.084;2022-07-18T03:22:30;16.00;57.60
65179;DHT22;51849;47.476;8.084;2022-07-18T03:24:58;15.90;57.50
65179;DHT22;51849;47.476;8.084;2022-07-18T03:27:24;15.80;57.30
65179;DHT22;51849;47.476;8.084;2022-07-18T03:29:50;15.80;57.40
65179;DHT22;51849;47.476;8.084;2022-07-18T03:32:18;15.80;57.40
65179;DHT22;51849;47.476;8.084;2022-07-18T03:34:44;15.80;57.20
65179;DHT22;51849;47.476;8.084;2022-07-18T03:37:09;15.90;57.20
65179;DHT22;51849;47.476;8.084;2022-07-18T03:39:35;15.90;57.40
65179;DHT22;51849;47.476;8.084;2022-07-18T03:42:01;15.80;57.50
65179;DHT22;51849;47.476;8.084;2022-07-18T03:44:27;15.70;57.20
65179;DHT22;51849;47.476;8.084;2022-07-18T03:46:52;15.60;58.00
65179;DHT22;51849;47.476;8.084;2022-07-18T03:49:19;15.40;58.30
65179;DHT22;51849;47.476;8.084;2022-07-18T03:51:45;15.30;58.90
65179;DHT22;51849;47.476;8.084;2022-07-18T03:54:11;15.20;59.20
65179;DHT22;51849;47.476;8.084;2022-07-18T03:56:37;15.20;59.10
65179;DHT22;51849;47.476;8.084;2022-07-18T03:59:03;15.20;59.00
65179;DHT22;51849;47.476;8.084;2022-07-18T04:01:29;15.20;58.80
65179;DHT22;51849;47.476;8.084;2022-07-18T04:03:55;15.20;58.40
65179;DHT22;51849;47.476;8.084;2022-07-18T04:06:20;15.40;58.30
65179;DHT22;51849;47.476;8.084;2022-07-18T04:08:46;15.40;58.40
65179;DHT22;51849;47.476;8.084;2022-07-18T04:11:12;15.40;58.20
65179;DHT22;51849;47.476;8.084;2022-07-18T04:13:38;15.40;58.10
65179;DHT22;51849;47.476;8.084;2022-07-18T04:16:03;15.40;58.10
65179;DHT22;51849;47.476;8.084;2022-07-18T04:18:32;15.50;58.20
65179;DHT22;51849;47.476;8.084;2022-07-18T04:20:57;15.60;58.10
65179;DHT22;51849;47.476;8.084;2022-07-18T04:23:23;15.50;58.40
65179;DHT22;51849;47.476;8.084;2022-07-18T04:25:49;15.50;58.60
65179;DHT22;51849;47.476;8.084;2022-07-18T04:28:15;15.50;58.40
65179;DHT22;51849;47.476;8.084;2022-07-18T04:30:41;15.60;58.20
65179;DHT22;51849;47.476;8.084;2022-07-18T04:33:08;15.50;58.40
65179;DHT22;51849;47.476;8.084;2022-07-18T04:35:36;15.60;58.20
65179;DHT22;51849;47.476;8.084;2022-07-18T04:38:03;15.60;57.90
65179;DHT22;51849;47.476;8.084;2022-07-18T04:40:30;15.70;57.60
65179;DHT22;51849;47.476;8.084;2022-07-18T04:42:56;15.80;57.50
65179;DHT22;51849;47.476;8.084;2022-07-18T04:45:21;15.80;57.90
65179;DHT22;51849;47.476;8.084;2022-07-18T04:47:52;15.90;58.10
65179;DHT22;51849;47.476;8.084;2022-07-18T04:50:18;15.90;58.40
65179;DHT22;51849;47.476;8.084;2022-07-18T04:52:45;16.00;57.50
65179;DHT22;51849;47.476;8.084;2022-07-18T04:55:12;16.20;56.70
65179;DHT22;51849;47.476;8.084;2022-07-18T04:57:39;16.40;55.60
65179;DHT22;51849;47.476;8.084;2022-07-18T05:00:07;16.60;55.40
65179;DHT22;51849;47.476;8.084;2022-07-18T05:02:35;16.80;54.80
65179;DHT22;51849;47.476;8.084;2022-07-18T05:05:04;17.00;54.40
65179;DHT22;51849;47.476;8.084;2022-07-18T05:07:30;17.30;53.70
65179;DHT22;51849;47.476;8.084;2022-07-18T05:09:56;17.50;53.20
65179;DHT22;51849;47.476;8.084;2022-07-18T05:12:21;17.60;53.10
65179;DHT22;51849;47.476;8.084;2022-07-18T05:14:49;17.90;52.90
65179;DHT22;51849;47.476;8.084;2022-07-18T05:17:15;18.10;52.50
65179;DHT22;51849;47.476;8.084;2022-07-18T05:19:42;18.30;51.70
65179;DHT22;51849;47.476;8.084;2022-07-18T05:22:07;18.50;51.30
65179;DHT22;51849;47.476;8.084;2022-07-18T05:24:33;18.60;50.90
65179;DHT22;51849;47.476;8.084;2022-07-18T05:26:58;18.80;50.40
65179;DHT22;51849;47.476;8.084;2022-07-18T05:29:24;19.00;50.00
65179;DHT22;51849;47.476;8.084;2022-07-18T05:31:53;19.20;49.30
65179;DHT22;51849;47.476;8.084;2022-07-18T05:34:18;19.30;49.20
65179;DHT22;51849;47.476;8.084;2022-07-18T05:36:46;19.60;49.10
65179;DHT22;51849;47.476;8.084;2022-07-18T05:39:12;19.80;48.60
65179;DHT22;51849;47.476;8.084;2022-07-18T05:41:38;20.00;48.50
65179;DHT22;51849;47.476;8.084;2022-07-18T05:44:04;20.10;48.10
65179;DHT22;51849;47.476;8.084;2022-07-18T05:46:32;20.30;47.30
65179;DHT22;51849;47.476;8.084;2022-07-18T05:48:58;20.50;46.80
65179;DHT22;51849;47.476;8.084;2022-07-18T05:51:23;20.70;46.40
65179;DHT22;51849;47.476;8.084;2022-07-18T05:53:51;20.90;46.40
65179;DHT22;51849;47.476;8.084;2022-07-18T05:56:17;21.00;46.40
65179;DHT22;51849;47.476;8.084;2022-07-18T05:58:43;21.10;46.20
65179;DHT22;51849;47.476;8.084;2022-07-18T06:01:08;21.20;46.00
65179;DHT22;51849;47.476;8.084;2022-07-18T06:03:34;21.40;45.90
65179;DHT22;51849;47.476;8.084;2022-07-18T06:06:00;21.70;44.80
65179;DHT22;51849;47.476;8.084;2022-07-18T06:08:28;21.90;44.50
65179;DHT22;51849;47.476;8.084;2022-07-18T06:10:53;22.00;44.60
65179;DHT22;51849;47.476;8.084;2022-07-18T06:13:19;22.20;45.00
65179;DHT22;51849;47.476;8.084;2022-07-18T06:15:45;22.40;44.70
65179;DHT22;51849;47.476;8.084;2022-07-18T06:18:10;22.70;44.40
65179;DHT22;51849;47.476;8.084;2022-07-18T06:20:39;22.80;44.70
65179;DHT22;51849;47.476;8.084;2022-07-18T06:23:05;22.90;44.40
65179;DHT22;51849;47.476;8.084;2022-07-18T06:25:31;22.80;44.10
65179;DHT22;51849;47.476;8.084;2022-07-18T06:27:56;23.10;43.60
65179;DHT22;51849;47.476;8.084;2022-07-18T06:30:22;23.30;43.50
65179;DHT22;51849;47.476;8.084;2022-07-18T06:32:48;23.50;40.10
65179;DHT22;51849;47.476;8.084;2022-07-18T06:35:14;23.50;38.10
65179;DHT22;51849;47.476;8.084;2022-07-18T06:37:39;23.70;36.10
65179;DHT22;51849;47.476;8.084;2022-07-18T06:40:05;23.70;36.00
65179;DHT22;51849;47.476;8.084;2022-07-18T06:42:31;23.90;35.50
65179;DHT22;51849;47.476;8.084;2022-07-18T06:44:58;24.10;35.40
65179;DHT22;51849;47.476;8.084;2022-07-18T06:47:24;24.30;34.00
65179;DHT22;51849;47.476;8.084;2022-07-18T06:49:52;24.40;34.80
65179;DHT22;51849;47.476;8.084;2022-07-18T06:52:17;24.50;33.70
65179;DHT22;51849;47.476;8.084;2022-07-18T06:54:43;24.50;34.50
65179;DHT22;51849;47.476;8.084;2022-07-18T06:57:11;24.50;34.10
65179;DHT22;51849;47.476;8.084;2022-07-18T06:59:37;24.60;34.00
65179;DHT22;51849;47.476;8.084;2022-07-18T07:02:03;24.70;33.70
65179;DHT22;51849;47.476;8.084;2022-07-18T07:04:29;24.90;33.50
65179;DHT22;51849;47.476;8.084;2022-07-18T07:06:55;24.80;33.50
65179;DHT22;51849;47.476;8.084;2022-07-18T07:09:21;25.00;33.50
65179;DHT22;51849;47.476;8.084;2022-07-18T07:11:47;25.10;33.50
65179;DHT22;51849;47.476;8.084;2022-07-18T07:14:12;25.20;33.70
65179;DHT22;51849;47.476;8.084;2022-07-18T07:16:38;25.20;33.20
65179;DHT22;51849;47.476;8.084;2022-07-18T07:19:04;25.30;33.00
65179;DHT22;51849;47.476;8.084;2022-07-18T07:21:29;25.40;33.50
65179;DHT22;51849;47.476;8.084;2022-07-18T07:23:55;25.60;32.90
65179;DHT22;51849;47.476;8.084;2022-07-18T07:26:21;25.70;33.00
65179;DHT22;51849;47.476;8.084;2022-07-18T07:28:46;25.70;33.20
65179;DHT22;51849;47.476;8.084;2022-07-18T07:31:12;25.70;33.20
65179;DHT22;51849;47.476;8.084;2022-07-18T07:33:38;25.70;33.30
65179;DHT22;51849;47.476;8.084;2022-07-18T07:36:04;25.80;33.30
65179;DHT22;51849;47.476;8.084;2022-07-18T07:38:30;25.80;33.80
65179;DHT22;51849;47.476;8.084;2022-07-18T07:40:55;25.90;33.50
65179;DHT22;51849;47.476;8.084;2022-07-18T07:43:21;26.00;33.50
65179;DHT22;51849;47.476;8.084;2022-07-18T07:45:49;26.00;33.20
65179;DHT22;51849;47.476;8.084;2022-07-18T07:48:16;26.10;33.50
65179;DHT22;51849;47.476;8.084;2022-07-18T07:50:42;26.20;33.10
65179;DHT22;51849;47.476;8.084;2022-07-18T07:53:08;26.30;33.30
65179;DHT22;51849;47.476;8.084;2022-07-18T07:55:33;26.30;33.50
65179;DHT22;51849;47.476;8.084;2022-07-18T07:57:59;26.40;33.50
65179;DHT22;51849;47.476;8.084;2022-07-18T08:00:25;26.50;33.50
65179;DHT22;51849;47.476;8.084;2022-07-18T08:02:54;26.50;33.40
65179;DHT22;51849;47.476;8.084;2022-07-18T08:05:22;26.60;33.40
65179;DHT22;51849;47.476;8.084;2022-07-18T08:07:48;26.80;33.30
65179;DHT22;51849;47.476;8.084;2022-07-18T08:10:14;26.90;33.20
65179;DHT22;51849;47.476;8.084;2022-07-18T08:12:40;26.80;33.50
65179;DHT22;51849;47.476;8.084;2022-07-18T08:15:05;26.80;33.50
65179;DHT22;51849;47.476;8.084;2022-07-18T08:17:32;26.90;33.30
65179;DHT22;51849;47.476;8.084;2022-07-18T08:19:57;27.10;33.50
65179;DHT22;51849;47.476;8.084;2022-07-18T08:22:23;27.20;33.10
65179;DHT22;51849;47.476;8.084;2022-07-18T08:24:49;27.30;33.30
65179;DHT22;51849;47.476;8.084;2022-07-18T08:27:15;27.40;33.30
65179;DHT22;51849;47.476;8.084;2022-07-18T08:29:40;27.40;33.20
65179;DHT22;51849;47.476;8.084;2022-07-18T08:32:08;27.40;33.50
65179;DHT22;51849;47.476;8.084;2022-07-18T08:34:36;27.50;33.50
65179;DHT22;51849;47.476;8.084;2022-07-18T08:37:02;27.80;33.40
65179;DHT22;51849;47.476;8.084;2022-07-18T08:39:28;28.00;32.50
65179;DHT22;51849;47.476;8.084;2022-07-18T08:41:53;28.00;32.20
65179;DHT22;51849;47.476;8.084;2022-07-18T08:44:20;28.20;32.50
65179;DHT22;51849;47.476;8.084;2022-07-18T08:46:50;28.10;32.00
65179;DHT22;51849;47.476;8.084;2022-07-18T08:49:17;28.20;31.90
65179;DHT22;51849;47.476;8.084;2022-07-18T08:51:43;28.30;31.70
65179;DHT22;51849;47.476;8.084;2022-07-18T08:54:09;28.40;32.00
65179;DHT22;51849;47.476;8.084;2022-07-18T08:56:35;28.50;31.30
65179;DHT22;51849;47.476;8.084;2022-07-18T08:59:02;28.50;31.00
65179;DHT22;51849;47.476;8.084;2022-07-18T09:01:29;28.60;31.40
65179;DHT22;51849;47.476;8.084;2022-07-18T09:03:55;28.50;31.30
65179;DHT22;51849;47.476;8.084;2022-07-18T09:06:46;28.50;31.00
65179;DHT22;51849;47.476;8.084;2022-07-18T09:09:13;28.60;31.00
65179;DHT22;51849;47.476;8.084;2022-07-18T09:11:50;28.70;30.00
65179;DHT22;51849;47.476;8.084;2022-07-18T09:14:31;28.80;30.20
65179;DHT22;51849;47.476;8.084;2022-07-18T09:19:34;29.10;29.50
65179;DHT22;51849;47.476;8.084;2022-07-18T09:22:22;29.20;29.80
65179;DHT22;51849;47.476;8.084;2022-07-18T09:30:17;29.50;28.30
65179;DHT22;51849;47.476;8.084;2022-07-18T09:35:30;29.90;27.20
65179;DHT22;51849;47.476;8.084;2022-07-18T09:38:00;30.00;27.00
65179;DHT22;51849;47.476;8.084;2022-07-18T09:40:31;29.90;26.70
65179;DHT22;51849;47.476;8.084;2022-07-18T09:43:00;30.00;26.20
65179;DHT22;51849;47.476;8.084;2022-07-18T09:45:28;30.30;26.00
65179;DHT22;51849;47.476;8.084;2022-07-18T09:48:05;30.30;26.10
65179;DHT22;51849;47.476;8.084;2022-07-18T09:50:37;30.30;25.70
65179;DHT22;51849;47.476;8.084;2022-07-18T09:53:27;30.20;25.90
65179;DHT22;51849;47.476;8.084;2022-07-18T09:55:57;30.20;24.90
65179;DHT22;51849;47.476;8.084;2022-07-18T09:58:31;30.20;25.50
65179;DHT22;51849;47.476;8.084;2022-07-18T10:00:59;30.20;25.70
65179;DHT22;51849;47.476;8.084;2022-07-18T10:03:28;30.30;25.60
65179;DHT22;51849;47.476;8.084;2022-07-18T10:05:55;30.40;25.40
65179;DHT22;51849;47.476;8.084;2022-07-18T10:08:23;30.70;25.90
65179;DHT22;51849;47.476;8.084;2022-07-18T10:10:51;31.00;25.80
65179;DHT22;51849;47.476;8.084;2022-07-18T10:13:19;31.30;25.70
65179;DHT22;51849;47.476;8.084;2022-07-18T10:15:46;31.30;25.20
65179;DHT22;51849;47.476;8.084;2022-07-18T10:18:15;31.40;25.40
65179;DHT22;51849;47.476;8.084;2022-07-18T10:29:09;31.30;25.00
65179;DHT22;51849;47.476;8.084;2022-07-18T10:34:26;31.60;25.30
65179;DHT22;51849;47.476;8.084;2022-07-18T10:39:45;31.90;24.60
65179;DHT22;51849;47.476;8.084;2022-07-18T10:42:13;31.90;24.40
65179;DHT22;51849;47.476;8.084;2022-07-18T10:44:44;31.90;24.60
65179;DHT22;51849;47.476;8.084;2022-07-18T10:47:15;31.90;24.90
65179;DHT22;51849;47.476;8.084;2022-07-18T10:57:29;32.40;23.70
65179;DHT22;51849;47.476;8.084;2022-07-18T11:00:10;32.50;23.40
65179;DHT22;51849;47.476;8.084;2022-07-18T11:02:45;32.50;23.40
65179;DHT22;51849;47.476;8.084;2022-07-18T11:21:23;32.70;22.50
65179;DHT22;51849;47.476;8.084;2022-07-18T11:23:50;32.50;23.30
65179;DHT22;51849;47.476;8.084;2022-07-18T11:26:25;32.60;23.10
65179;DHT22;51849;47.476;8.084;2022-07-18T11:28:59;32.70;22.80
65179;DHT22;51849;47.476;8.084;2022-07-18T11:31:28;32.80;22.20
65179;DHT22;51849;47.476;8.084;2022-07-18T11:33:55;32.90;22.20
65179;DHT22;51849;47.476;8.084;2022-07-18T11:36:31;32.90;21.90
65179;DHT22;51849;47.476;8.084;2022-07-18T11:39:03;33.00;22.00
65179;DHT22;51849;47.476;8.084;2022-07-18T11:41:29;32.90;21.30
65179;DHT22;51849;47.476;8.084;2022-07-18T11:44:02;33.00;21.00
65179;DHT22;51849;47.476;8.084;2022-07-18T11:46:28;33.00;21.10
65179;DHT22;51849;47.476;8.084;2022-07-18T11:49:02;33.00;21.90
65179;DHT22;51849;47.476;8.084;2022-07-18T11:51:34;33.10;21.80
65179;DHT22;51849;47.476;8.084;2022-07-18T11:54:03;33.00;21.40
65179;DHT22;51849;47.476;8.084;2022-07-18T11:56:30;33.10;21.60
65179;DHT22;51849;47.476;8.084;2022-07-18T11:58:59;33.20;20.90
65179;DHT22;51849;47.476;8.084;2022-07-18T12:01:31;33.30;20.80
65179;DHT22;51849;47.476;8.084;2022-07-18T12:03:58;33.40;20.90
65179;DHT22;51849;47.476;8.084;2022-07-18T12:06:27;33.50;20.40
65179;DHT22;51849;47.476;8.084;2022-07-18T12:08:54;33.40;20.10
65179;DHT22;51849;47.476;8.084;2022-07-18T12:16:33;33.10;21.00
65179;DHT22;51849;47.476;8.084;2022-07-18T12:19:07;33.20;21.00
65179;DHT22;51849;47.476;8.084;2022-07-18T12:32:23;33.70;19.80
65179;DHT22;51849;47.476;8.084;2022-07-18T12:35:00;33.70;20.00
65179;DHT22;51849;47.476;8.084;2022-07-18T12:37:29;33.80;19.90
65179;DHT22;51849;47.476;8.084;2022-07-18T12:40:05;33.90;19.60
65179;DHT22;51849;47.476;8.084;2022-07-18T12:42:34;34.00;19.40
65179;DHT22;51849;47.476;8.084;2022-07-18T12:45:08;34.10;19.40
65179;DHT22;51849;47.476;8.084;2022-07-18T12:47:36;34.20;19.50
65179;DHT22;51849;47.476;8.084;2022-07-18T12:50:05;34.10;19.00
65179;DHT22;51849;47.476;8.084;2022-07-18T12:52:38;34.00;18.90
65179;DHT22;51849;47.476;8.084;2022-07-18T12:55:04;33.90;19.40
65179;DHT22;51849;47.476;8.084;2022-07-18T12:57:30;34.00;19.30
65179;DHT22;51849;47.476;8.084;2022-07-18T12:59:56;33.90;19.00
65179;DHT22;51849;47.476;8.084;2022-07-18T13:02:25;33.90;19.30
65179;DHT22;51849;47.476;8.084;2022-07-18T13:04:51;33.90;19.30
65179;DHT22;51849;47.476;8.084;2022-07-18T13:07:19;33.90;19.20
65179;DHT22;51849;47.476;8.084;2022-07-18T13:09:45;33.90;18.70
65179;DHT22;51849;47.476;8.084;2022-07-18T13:12:11;33.90;19.30
65179;DHT22;51849;47.476;8.084;2022-07-18T13:14:36;33.90;19.20
65179;DHT22;51849;47.476;8.084;2022-07-18T13:17:02;34.00;19.10
65179;DHT22;51849;47.476;8.084;2022-07-18T13:19:28;34.10;19.40
65179;DHT22;51849;47.476;8.084;2022-07-18T13:21:56;34.20;19.10
65179;DHT22;51849;47.476;8.084;2022-07-18T13:24:26;34.20;19.00
65179;DHT22;51849;47.476;8.084;2022-07-18T13:26:52;34.50;18.90
65179;DHT22;51849;47.476;8.084;2022-07-18T13:29:20;34.50;18.80
65179;DHT22;51849;47.476;8.084;2022-07-18T13:31:46;34.50;19.10
65179;DHT22;51849;47.476;8.084;2022-07-18T13:34:13;34.30;19.40
65179;DHT22;51849;47.476;8.084;2022-07-18T13:36:39;34.40;19.40
65179;DHT22;51849;47.476;8.084;2022-07-18T13:39:05;34.60;19.60
65179;DHT22;51849;47.476;8.084;2022-07-18T13:41:30;34.70;19.10
65179;DHT22;51849;47.476;8.084;2022-07-18T13:43:57;34.60;19.20
65179;DHT22;51849;47.476;8.084;2022-07-18T13:46:22;34.70;20.00
65179;DHT22;51849;47.476;8.084;2022-07-18T13:48:48;34.80;19.30
65179;DHT22;51849;47.476;8.084;2022-07-18T13:51:16;34.80;19.50
65179;DHT22;51849;47.476;8.084;2022-07-18T13:53:42;34.80;19.20
65179;DHT22;51849;47.476;8.084;2022-07-18T13:56:10;34.70;19.00
65179;DHT22;51849;47.476;8.084;2022-07-18T13:58:36;34.80;19.20
65179;DHT22;51849;47.476;8.084;2022-07-18T14:01:02;34.60;19.10
65179;DHT22;51849;47.476;8.084;2022-07-18T14:03:28;34.70;19.80
65179;DHT22;51849;47.476;8.084;2022-07-18T14:05:56;34.70;19.40
65179;DHT22;51849;47.476;8.084;2022-07-18T14:08:22;34.70;19.50
65179;DHT22;51849;47.476;8.084;2022-07-18T14:10:48;34.70;19.70
65179;DHT22;51849;47.476;8.084;2022-07-18T14:13:14;34.70;19.50
65179;DHT22;51849;47.476;8.084;2022-07-18T14:15:40;34.70;19.70
65179;DHT22;51849;47.476;8.084;2022-07-18T14:18:06;34.80;19.10
65179;DHT22;51849;47.476;8.084;2022-07-18T14:20:32;34.80;19.30
65179;DHT22;51849;47.476;8.084;2022-07-18T14:22:58;35.00;19.20
65179;DHT22;51849;47.476;8.084;2022-07-18T14:25:24;35.00;19.10
65179;DHT22;51849;47.476;8.084;2022-07-18T14:27:50;35.10;19.10
65179;DHT22;51849;47.476;8.084;2022-07-18T14:30:16;35.20;19.00
65179;DHT22;51849;47.476;8.084;2022-07-18T14:32:42;35.10;18.40
65179;DHT22;51849;47.476;8.084;2022-07-18T14:35:09;35.10;18.80
65179;DHT22;51849;47.476;8.084;2022-07-18T14:37:36;35.20;19.00
65179;DHT22;51849;47.476;8.084;2022-07-18T14:40:03;35.20;18.80
65179;DHT22;51849;47.476;8.084;2022-07-18T14:42:30;35.10;19.00
65179;DHT22;51849;47.476;8.084;2022-07-18T14:44:56;35.00;19.20
65179;DHT22;51849;47.476;8.084;2022-07-18T14:47:24;35.10;19.10
65179;DHT22;51849;47.476;8.084;2022-07-18T14:49:50;35.20;19.10
65179;DHT22;51849;47.476;8.084;2022-07-18T14:52:16;35.30;19.00
65179;DHT22;51849;47.476;8.084;2022-07-18T14:54:42;35.30;19.00
65179;DHT22;51849;47.476;8.084;2022-07-18T14:57:11;35.30;18.90
65179;DHT22;51849;47.476;8.084;2022-07-18T14:59:39;35.30;19.30
65179;DHT22;51849;47.476;8.084;2022-07-18T15:02:05;35.20;18.90
65179;DHT22;51849;47.476;8.084;2022-07-18T15:04:34;35.20;19.00
65179;DHT22;51849;47.476;8.084;2022-07-18T15:07:03;35.20;18.70
65179;DHT22;51849;47.476;8.084;2022-07-18T15:09:34;35.00;18.70
65179;DHT22;51849;47.476;8.084;2022-07-18T15:12:00;34.80;18.80
65179;DHT22;51849;47.476;8.084;2022-07-18T15:14:29;34.80;19.10
65179;DHT22;51849;47.476;8.084;2022-07-18T15:16:57;34.90;18.70
65179;DHT22;51849;47.476;8.084;2022-07-18T15:19:23;34.70;18.40
65179;DHT22;51849;47.476;8.084;2022-07-18T15:21:49;34.70;18.30
65179;DHT22;51849;47.476;8.084;2022-07-18T15:24:19;34.70;18.80
65179;DHT22;51849;47.476;8.084;2022-07-18T15:26:47;34.60;18.60
65179;DHT22;51849;47.476;8.084;2022-07-18T15:29:13;34.60;19.10
65179;DHT22;51849;47.476;8.084;2022-07-18T15:31:40;34.70;19.50
65179;DHT22;51849;47.476;8.084;2022-07-18T15:34:09;34.70;19.60
65179;DHT22;51849;47.476;8.084;2022-07-18T15:36:37;34.70;18.80
65179;DHT22;51849;47.476;8.084;2022-07-18T15:39:02;34.60;18.60
65179;DHT22;51849;47.476;8.084;2022-07-18T15:41:28;34.60;19.40
65179;DHT22;51849;47.476;8.084;2022-07-18T15:43:56;34.70;19.60
65179;DHT22;51849;47.476;8.084;2022-07-18T15:46:22;34.80;19.30
65179;DHT22;51849;47.476;8.084;2022-07-18T15:48:48;34.80;19.20
65179;DHT22;51849;47.476;8.084;2022-07-18T15:51:14;34.90;19.30
65179;DHT22;51849;47.476;8.084;2022-07-18T15:53:40;34.90;19.40
65179;DHT22;51849;47.476;8.084;2022-07-18T15:56:06;34.80;19.60
65179;DHT22;51849;47.476;8.084;2022-07-18T15:58:32;34.80;19.70
65179;DHT22;51849;47.476;8.084;2022-07-18T16:01:00;34.80;19.70
65179;DHT22;51849;47.476;8.084;2022-07-18T16:03:26;34.80;19.80
65179;DHT22;51849;47.476;8.084;2022-07-18T16:05:52;34.80;19.70
65179;DHT22;51849;47.476;8.084;2022-07-18T16:08:24;34.60;19.80
65179;DHT22;51849;47.476;8.084;2022-07-18T16:10:50;34.50;19.70
65179;DHT22;51849;47.476;8.084;2022-07-18T16:13:16;34.40;19.70
65179;DHT22;51849;47.476;8.084;2022-07-18T16:15:44;34.30;19.80
65179;DHT22;51849;47.476;8.084;2022-07-18T16:18:10;34.30;19.80
65179;DHT22;51849;47.476;8.084;2022-07-18T16:20:37;34.30;19.60
65179;DHT22;51849;47.476;8.084;2022-07-18T16:23:04;34.30;19.50
65179;DHT22;51849;47.476;8.084;2022-07-18T16:25:30;34.30;19.90
65179;DHT22;51849;47.476;8.084;2022-07-18T16:27:58;34.30;19.40
65179;DHT22;51849;47.476;8.084;2022-07-18T16:30:25;34.30;19.70
65179;DHT22;51849;47.476;8.084;2022-07-18T16:32:51;34.30;19.50
65179;DHT22;51849;47.476;8.084;2022-07-18T16:35:17;34.30;19.60